Time;durP1;ratioP1;P1;durP2;ratioP2;P2;SDS_P1;SDS_P2;PMS_P1;PMS_P2;Temp;Humidity;BMP_temperature;BMP_pressure;BME280_temperature;BME280_humidity;BME280_pressure;Samples;Min_cycle;Max_cycle;Signal;HPM_P1;HPM_P2
2022/01/17 00:02:02;;;;;;;12.90;6.70;;;;;;;5.23;87.35;101637.53;5017628;28;20030;-46
2022/01/17 00:04:27;;;;;;;23.73;8.00;;;;;;;5.24;86.99;101640.00;5018624;28;20026;-47
2022/01/17 00:06:53;;;;;;;15.07;6.72;;;;;;;5.22;87.34;101635.88;5013871;28;20022;-46
2022/01/17 00:09:18;;;;;;;14.50;6.75;;;;;;;5.23;87.68;101630.38;5021668;28;20116;-47
2022/01/17 00:11:48;;;;;;;17.23;7.30;;;;;;;5.19;87.24;101622.97;5016493;28;20032;-46
2022/01/17 00:14:17;;;;;;;16.05;7.65;;;;;;;5.21;87.84;101634.25;5017963;28;20068;-47
2022/01/17 00:17:04;;;;;;;13.65;7.72;;;;;;;5.24;87.40;101640.00;5017590;28;20407;-46
2022/01/17 00:19:38;;;;;;;16.42;7.13;;;;;;;5.21;87.35;101642.22;5019761;28;20638;-46
2022/01/17 00:22:04;;;;;;;12.75;5.57;;;;;;;5.26;87.02;101637.16;5017994;28;20022;-47
2022/01/17 00:24:30;;;;;;;12.45;5.90;;;;;;;5.29;86.62;101636.75;5018072;28;20018;-46
2022/01/17 00:26:56;;;;;;;12.75;6.53;;;;;;;5.30;86.47;101623.28;5016915;28;20463;-46
2022/01/17 00:29:21;;;;;;;12.27;4.60;;;;;;;5.26;86.03;101627.34;5018669;28;20064;-46
2022/01/17 00:31:47;;;;;;;12.63;5.43;;;;;;;5.29;86.01;101613.66;5016454;28;20411;-47
2022/01/17 00:34:13;;;;;;;11.52;5.97;;;;;;;5.35;85.70;101625.34;5018267;28;20132;-46
2022/01/17 00:36:38;;;;;;;11.10;5.05;;;;;;;5.34;85.74;101629.03;5018969;28;20276;-46
2022/01/17 00:39:04;;;;;;;12.85;4.57;;;;;;;5.33;85.62;101622.06;5019106;28;20036;-47
2022/01/17 00:41:29;;;;;;;9.10;4.75;;;;;;;5.41;85.93;101617.44;5017970;28;20507;-46
2022/01/17 00:43:55;;;;;;;10.25;4.57;;;;;;;5.33;85.55;101611.44;5018695;28;20025;-47
2022/01/17 00:46:21;;;;;;;11.38;4.53;;;;;;;5.35;85.06;101614.72;5018805;28;20155;-46
2022/01/17 00:48:46;;;;;;;11.05;4.20;;;;;;;5.34;84.85;101616.56;5017580;28;20488;-46
2022/01/17 00:51:12;;;;;;;11.27;3.22;;;;;;;5.34;83.86;101613.09;5019539;28;20466;-46
2022/01/17 00:53:37;;;;;;;14.88;3.55;;;;;;;5.40;83.67;101617.66;5019244;28;20024;-46
2022/01/17 00:56:05;;;;;;;9.65;2.95;;;;;;;5.41;83.01;101616.63;5015263;28;20028;-48
2022/01/17 00:58:30;;;;;;;7.80;3.03;;;;;;;5.42;83.09;101632.38;5019776;28;20025;-46
2022/01/17 01:00:56;;;;;;;9.13;2.38;;;;;;;5.36;82.51;101600.41;5018313;28;20030;-46
2022/01/17 01:03:21;;;;;;;11.43;2.50;;;;;;;5.38;82.42;101582.44;5019750;28;20026;-45
2022/01/17 01:05:47;;;;;;;10.85;2.53;;;;;;;5.42;82.02;101575.75;5017923;28;20498;-46
2022/01/17 01:08:12;;;;;;;7.05;1.92;;;;;;;5.45;81.73;101580.66;5016788;28;20031;-46
2022/01/17 01:10:38;;;;;;;8.05;2.30;;;;;;;5.37;81.03;101592.25;5019002;28;20030;-46
2022/01/17 01:13:04;;;;;;;9.68;1.45;;;;;;;5.36;80.34;101568.53;5018198;28;20391;-46
2022/01/17 01:18:37;;;;;;;5.15;1.60;;;;;;;5.45;79.53;101578.00;4992385;28;20055;-46
2022/01/17 01:29:22;;;;;;;11.30;1.80;;;;;;;5.44;77.90;101603.78;5007137;28;20128;-47
2022/01/17 01:31:53;;;;;;;4.43;1.42;;;;;;;5.45;77.69;101599.28;5004187;28;20025;-45
2022/01/17 01:34:27;;;;;;;7.82;1.50;;;;;;;5.42;77.36;101595.19;5004363;28;20117;-46
2022/01/17 01:36:53;;;;;;;11.88;1.77;;;;;;;5.45;77.36;101588.66;5000335;28;20076;-46
2022/01/17 01:39:23;;;;;;;7.93;1.60;;;;;;;5.45;77.12;101596.63;5002731;28;20276;-46
2022/01/17 01:41:49;;;;;;;7.20;1.42;;;;;;;5.39;77.08;101586.78;5003707;28;20029;-46
2022/01/17 01:44:17;;;;;;;8.45;1.70;;;;;;;5.43;77.37;101594.16;5003103;28;20058;-45
2022/01/17 01:46:44;;;;;;;6.82;1.85;;;;;;;5.44;77.30;101581.69;4999343;28;20021;-45
2022/01/17 01:49:11;;;;;;;12.20;1.90;;;;;;;5.41;76.88;101574.09;5002923;28;20026;-45
2022/01/17 01:51:37;;;;;;;7.88;2.85;;;;;;;5.43;76.82;101562.25;5001025;28;20080;-46
2022/01/17 01:54:03;;;;;;;9.25;1.70;;;;;;;5.45;77.23;101562.06;5000999;28;20053;-46
2022/01/17 01:56:29;;;;;;;7.07;1.52;;;;;;;5.47;76.80;101565.34;5002749;28;20032;-47
2022/01/17 01:58:54;;;;;;;11.50;2.22;;;;;;;5.47;76.36;101550.22;5003063;28;20282;-46
2022/01/17 02:01:20;;;;;;;10.02;1.85;;;;;;;5.48;76.60;101545.72;5003814;28;20192;-45
2022/01/17 02:03:45;;;;;;;10.75;1.70;;;;;;;5.45;76.35;101511.56;5003505;28;20033;-46
2022/01/17 02:06:11;;;;;;;10.18;1.52;;;;;;;5.43;76.24;101513.59;5003032;28;20029;-46
2022/01/17 02:08:36;;;;;;;2.53;1.00;;;;;;;5.46;76.27;101500.75;5001735;28;20080;-46
2022/01/17 02:11:02;;;;;;;11.27;1.38;;;;;;;5.38;75.44;101486.78;5002793;28;20375;-46
2022/01/17 02:13:28;;;;;;;6.43;1.58;;;;;;;5.42;75.71;101469.44;5002193;28;20578;-45
2022/01/17 02:16:04;;;;;;;8.13;2.28;;;;;;;5.33;74.63;101463.44;5002267;28;20038;-46
2022/01/17 02:18:31;;;;;;;12.63;1.67;;;;;;;5.44;75.13;101467.41;5002463;28;20388;-45
2022/01/17 02:23:39;;;;;;;10.02;1.45;;;;;;;5.45;74.87;101475.19;4999180;28;20083;-46
2022/01/17 02:26:05;;;;;;;5.28;1.60;;;;;;;5.49;75.49;101474.78;5002039;28;20036;-46
2022/01/17 02:28:36;;;;;;;6.47;1.25;;;;;;;5.48;74.87;101484.59;5002513;28;20026;-46
2022/01/17 02:31:05;;;;;;;10.10;1.58;;;;;;;5.46;74.78;101468.84;5001082;28;20530;-46
2022/01/17 02:33:34;;;;;;;9.63;1.73;;;;;;;5.46;74.64;101470.69;5001538;28;20029;-46
2022/01/17 02:36:01;;;;;;;11.50;1.30;;;;;;;5.47;74.89;101461.69;5002769;28;20615;-45
2022/01/17 02:38:27;;;;;;;5.32;1.50;;;;;;;5.47;74.87;101467.00;5001191;28;20076;-45
2022/01/17 02:40:53;;;;;;;13.27;1.50;;;;;;;5.47;74.43;101456.38;5001953;28;20030;-46
2022/01/17 02:43:21;;;;;;;5.35;1.80;;;;;;;5.51;74.71;101457.63;5001968;28;20021;-45
2022/01/17 02:48:25;;;;;;;10.63;2.58;;;;;;;5.46;74.41;101436.94;5001072;28;20454;-46
2022/01/17 02:50:51;;;;;;;8.63;1.40;;;;;;;5.48;74.56;101439.41;5002035;28;20056;-45
2022/01/17 02:53:17;;;;;;;7.25;1.30;;;;;;;5.54;74.08;101432.47;5000755;28;20082;-45
2022/01/17 02:55:50;;;;;;;6.68;1.20;;;;;;;5.49;73.97;101429.59;5001435;28;20040;-45
2022/01/17 02:58:20;;;;;;;11.70;1.50;;;;;;;5.46;74.10;101436.94;5003001;28;20026;-46
2022/01/17 03:00:50;;;;;;;13.98;2.08;;;;;;;5.55;74.25;101424.31;5002592;28;20041;-45
2022/01/17 03:03:18;;;;;;;10.80;1.45;;;;;;;5.51;73.91;101423.06;4998467;28;20022;-45
2022/01/17 03:05:44;;;;;;;4.25;1.48;;;;;;;5.52;74.22;101431.84;4999166;28;20116;-46
2022/01/17 03:08:10;;;;;;;9.23;2.03;;;;;;;5.53;73.94;101431.66;5000861;28;20044;-45
2022/01/17 03:10:40;;;;;;;18.63;2.72;;;;;;;5.50;73.66;101417.94;5003259;28;20538;-45
2022/01/17 03:13:14;;;;;;;15.60;2.15;;;;;;;5.50;73.75;101416.09;5001680;28;20068;-46
2022/01/17 03:15:40;;;;;;;8.88;2.13;;;;;;;5.55;73.78;101429.63;5001929;28;20088;-46
2022/01/17 03:18:06;;;;;;;6.47;1.55;;;;;;;5.59;73.89;101417.59;4999830;28;20061;-45
2022/01/17 03:20:32;;;;;;;10.73;1.40;;;;;;;5.59;73.95;101408.81;5000442;28;20073;-47
2022/01/17 03:22:57;;;;;;;6.50;1.60;;;;;;;5.56;73.42;101410.00;5001229;28;20424;-46
2022/01/17 03:25:23;;;;;;;8.18;2.30;;;;;;;5.57;73.66;101397.56;5000910;28;21555;-46
2022/01/17 03:27:49;;;;;;;8.50;1.20;;;;;;;5.62;73.76;101400.41;4999246;28;20447;-45
2022/01/17 03:30:14;;;;;;;8.13;2.10;;;;;;;5.63;73.63;101396.75;4999770;28;20083;-46
2022/01/17 03:32:40;;;;;;;11.35;1.90;;;;;;;5.66;73.58;101399.81;5001554;28;20439;-47
2022/01/17 03:35:07;;;;;;;10.90;1.70;;;;;;;5.62;73.40;101392.44;5002426;28;20033;-45
2022/01/17 03:37:32;;;;;;;10.35;2.05;;;;;;;5.64;73.89;101393.06;5000241;28;20037;-46
2022/01/17 03:39:58;;;;;;;11.57;1.48;;;;;;;5.60;73.90;101390.00;5002816;28;20041;-47
2022/01/17 03:42:24;;;;;;;10.10;2.03;;;;;;;5.64;73.56;101396.53;5001762;28;20048;-46
2022/01/17 03:44:50;;;;;;;9.90;1.40;;;;;;;5.63;73.19;101394.09;5002576;28;20030;-45
2022/01/17 03:47:17;;;;;;;7.63;1.85;;;;;;;5.70;73.55;101394.91;5001684;28;20025;-46
2022/01/17 03:49:43;;;;;;;10.18;1.90;;;;;;;5.74;73.67;101381.03;5001789;28;20026;-46
2022/01/17 03:52:08;;;;;;;6.22;1.77;;;;;;;5.80;73.51;101394.53;5000098;28;20526;-45
2022/01/17 03:54:34;;;;;;;10.43;2.50;;;;;;;5.73;73.53;101400.66;5005722;28;20033;-45
2022/01/17 03:57:01;;;;;;;5.85;1.52;;;;;;;5.71;73.74;101394.72;5004684;28;20037;-46
2022/01/17 03:59:28;;;;;;;6.43;1.65;;;;;;;5.74;74.15;101381.03;5004979;28;20030;-45
2022/01/17 04:01:53;;;;;;;6.43;1.13;;;;;;;5.72;74.04;101374.25;5003948;28;20022;-47
2022/01/17 04:04:19;;;;;;;12.23;1.77;;;;;;;5.68;74.40;101376.50;5003490;28;20440;-46
2022/01/17 04:06:44;;;;;;;10.18;1.75;;;;;;;5.65;74.82;101360.97;5003117;28;20053;-46
2022/01/17 04:09:11;;;;;;;13.35;2.50;;;;;;;5.67;74.36;101366.06;5019551;28;20045;-45
2022/01/17 04:11:38;;;;;;;9.95;1.88;;;;;;;5.66;74.99;101361.78;5004209;28;20037;-46
2022/01/17 04:14:05;;;;;;;11.05;1.77;;;;;;;5.65;75.02;101347.66;5004839;28;20026;-46
2022/01/17 04:16:31;;;;;;;8.30;1.88;;;;;;;5.67;75.30;101348.28;5001066;28;20783;-46
2022/01/17 04:18:57;;;;;;;14.98;2.58;;;;;;;5.67;75.28;101353.59;5003969;28;20245;-45
2022/01/17 04:21:22;;;;;;;8.32;2.25;;;;;;;5.68;75.35;101330.50;5002201;28;20036;-45
2022/01/17 04:23:48;;;;;;;11.75;2.67;;;;;;;5.69;75.55;101335.59;5003862;28;20025;-47
2022/01/17 04:26:14;;;;;;;8.23;2.00;;;;;;;5.71;75.50;101328.25;5002973;28;20107;-47
2022/01/17 04:28:40;;;;;;;7.57;2.33;;;;;;;5.67;75.39;101327.00;5005121;28;20026;-45
2022/01/17 04:31:05;;;;;;;14.80;1.83;;;;;;;5.75;75.71;101337.47;5004930;28;20083;-48
2022/01/17 04:33:31;;;;;;;8.30;1.80;;;;;;;5.72;75.52;101329.06;5004631;28;20541;-46
2022/01/17 04:35:57;;;;;;;9.93;2.13;;;;;;;5.73;75.91;101334.16;5000999;28;20037;-45
2022/01/17 04:38:22;;;;;;;7.38;2.00;;;;;;;5.73;75.57;101336.84;5003661;28;20053;-46
2022/01/17 04:41:00;;;;;;;9.27;2.38;;;;;;;5.71;75.93;101325.59;5002891;28;20034;-46
2022/01/17 04:46:08;;;;;;;8.88;2.63;;;;;;;5.68;76.02;101312.69;5002880;28;20282;-46
2022/01/17 04:48:34;;;;;;;11.98;1.80;;;;;;;5.72;76.25;101327.22;5003876;28;20037;-45
2022/01/17 04:51:00;;;;;;;16.30;2.03;;;;;;;5.77;76.22;101326.63;4999247;28;20041;-47
2022/01/17 04:53:29;;;;;;;8.75;1.30;;;;;;;5.81;76.03;101321.72;5002424;28;20026;-46
2022/01/17 04:55:55;;;;;;;11.25;1.63;;;;;;;5.79;76.25;101327.25;5001099;28;20030;-47
2022/01/17 04:58:21;;;;;;;8.07;1.75;;;;;;;5.83;75.77;101336.44;5004395;28;20064;-45
2022/01/17 05:00:47;;;;;;;8.80;1.77;;;;;;;5.81;76.08;101327.03;5004043;28;20391;-46
2022/01/17 05:03:21;;;;;;;11.38;2.08;;;;;;;5.81;75.89;101343.81;5001381;28;20021;-47
2022/01/17 05:05:47;;;;;;;9.95;2.33;;;;;;;5.81;76.13;101335.84;5001483;28;20037;-46
2022/01/17 05:08:14;;;;;;;8.98;2.30;;;;;;;5.84;76.38;101321.31;4997413;28;20091;-45
2022/01/17 05:10:46;;;;;;;12.02;1.92;;;;;;;5.90;76.14;101317.88;5003561;28;20084;-45
2022/01/17 05:13:18;;;;;;;11.88;2.53;;;;;;;5.92;76.07;101311.31;5001656;28;20451;-46
2022/01/17 05:15:49;;;;;;;8.52;1.60;;;;;;;5.89;75.80;101314.34;4999546;28;20034;-46
2022/01/17 05:20:59;;;;;;;11.90;2.40;;;;;;;5.91;75.95;101324.81;5002159;28;20076;-46
2022/01/17 05:23:25;;;;;;;11.65;2.15;;;;;;;5.94;76.24;101332.41;5002909;28;20053;-46
2022/01/17 05:25:50;;;;;;;11.73;1.95;;;;;;;5.97;76.17;101327.50;5000344;28;20029;-46
2022/01/17 05:28:16;;;;;;;8.20;2.13;;;;;;;5.97;76.04;101324.84;5003981;28;20446;-46
2022/01/17 05:30:42;;;;;;;12.52;2.45;;;;;;;5.97;75.71;101316.88;5002173;28;20262;-46
2022/01/17 05:33:07;;;;;;;9.52;1.52;;;;;;;5.95;76.04;101302.13;5004020;28;20496;-46
2022/01/17 05:35:33;;;;;;;12.45;2.28;;;;;;;6.01;75.85;101286.16;4998240;28;20408;-46
2022/01/17 05:37:59;;;;;;;7.00;1.48;;;;;;;5.99;75.97;101287.41;5001940;28;20487;-46
2022/01/17 05:40:24;;;;;;;11.05;1.63;;;;;;;6.01;75.96;101270.22;5003003;28;20057;-46
2022/01/17 05:42:50;;;;;;;8.90;1.85;;;;;;;6.03;76.20;101267.34;5003235;28;20561;-45
2022/01/17 05:45:16;;;;;;;10.35;1.40;;;;;;;6.03;76.73;101252.19;5002090;28;20430;-46
2022/01/17 05:47:42;;;;;;;8.23;1.48;;;;;;;6.05;76.78;101252.81;5003244;28;20029;-46
2022/01/17 05:50:08;;;;;;;12.43;2.65;;;;;;;6.06;76.24;101241.16;5002869;28;20025;-46
2022/01/17 05:52:34;;;;;;;11.60;2.55;;;;;;;6.05;77.04;101234.19;4998806;28;20061;-46
2022/01/17 05:55:01;;;;;;;8.30;1.98;;;;;;;6.01;77.23;101225.00;5002704;28;20121;-47
2022/01/17 05:57:26;;;;;;;15.27;1.95;;;;;;;6.04;77.82;101219.25;5017617;28;20040;-46
2022/01/17 05:59:52;;;;;;;12.77;1.52;;;;;;;6.00;77.72;101203.91;5002227;28;20510;-46
2022/01/17 06:02:18;;;;;;;8.15;1.73;;;;;;;5.95;78.40;101207.22;5000997;28;20036;-47
2022/01/17 06:04:44;;;;;;;9.20;1.80;;;;;;;5.97;78.36;101207.81;5000775;28;20030;-46
2022/01/17 06:07:10;;;;;;;12.23;3.15;;;;;;;5.97;78.95;101199.03;4997974;28;20053;-45
2022/01/17 06:09:35;;;;;;;11.77;2.28;;;;;;;5.96;78.65;101197.38;4998249;28;20030;-46
2022/01/17 06:12:02;;;;;;;8.93;1.58;;;;;;;5.94;78.93;101204.75;5001044;28;20017;-45
2022/01/17 06:14:29;;;;;;;9.40;2.15;;;;;;;5.94;79.31;101202.91;5003174;28;20395;-45
2022/01/17 06:16:55;;;;;;;10.57;1.50;;;;;;;5.93;79.80;101198.63;5003478;28;20040;-45
2022/01/17 06:19:20;;;;;;;14.10;2.28;;;;;;;5.95;79.92;101195.75;5003999;28;20029;-45
2022/01/17 06:21:46;;;;;;;6.53;1.35;;;;;;;5.96;80.01;101203.53;5002051;28;20037;-45
2022/01/17 06:24:11;;;;;;;5.20;1.30;;;;;;;5.96;80.57;101205.38;5002196;28;20024;-48
2022/01/17 06:26:38;;;;;;;13.50;1.65;;;;;;;5.99;80.35;101219.06;5000360;28;20033;-45
2022/01/17 06:29:04;;;;;;;7.32;1.92;;;;;;;6.00;80.55;101228.69;5002735;28;20057;-45
2022/01/17 06:31:30;;;;;;;8.88;1.45;;;;;;;5.98;80.45;101208.63;5014213;28;20033;-46
2022/01/17 06:33:56;;;;;;;8.25;1.83;;;;;;;5.99;80.56;101203.09;5001705;28;20041;-46
2022/01/17 06:36:22;;;;;;;4.05;1.30;;;;;;;5.97;80.83;101193.69;5002741;28;20032;-45
2022/01/17 06:38:49;;;;;;;7.97;1.45;;;;;;;5.99;81.03;101189.00;5000583;28;20438;-45
2022/01/17 06:41:17;;;;;;;10.50;1.67;;;;;;;5.95;81.80;101175.28;5003032;28;20154;-46
2022/01/17 06:43:44;;;;;;;15.55;1.75;;;;;;;5.94;81.66;101168.34;5000231;28;20080;-45
2022/01/17 06:46:09;;;;;;;6.30;1.25;;;;;;;5.96;81.74;101158.31;5001829;28;20034;-46
2022/01/17 06:48:35;;;;;;;8.07;1.73;;;;;;;5.96;82.71;101150.31;5001075;28;20272;-47
2022/01/17 06:51:00;;;;;;;6.90;1.50;;;;;;;5.96;82.63;101150.31;5003202;28;20544;-45
2022/01/17 06:53:27;;;;;;;14.80;1.63;;;;;;;5.98;82.95;101136.81;5001017;28;20077;-45
2022/01/17 06:55:54;;;;;;;9.55;1.70;;;;;;;5.94;83.25;101151.56;5002634;28;20534;-46
2022/01/17 06:58:19;;;;;;;7.43;1.42;;;;;;;5.94;83.58;101178.16;5002515;28;20585;-45
2022/01/17 07:00:45;;;;;;;6.43;1.88;;;;;;;5.98;83.33;101182.03;5002626;28;20044;-45
2022/01/17 07:03:11;;;;;;;7.55;1.30;;;;;;;5.89;84.45;101186.69;5000547;28;20439;-45
2022/01/17 07:05:37;;;;;;;6.88;1.52;;;;;;;5.94;84.39;101197.59;5001928;28;20030;-46
2022/01/17 07:08:03;;;;;;;7.28;1.92;;;;;;;5.97;84.83;101199.03;5000577;28;20034;-46
2022/01/17 07:10:28;;;;;;;7.40;1.17;;;;;;;5.91;85.50;101210.47;4997614;28;20037;-45
2022/01/17 07:12:55;;;;;;;11.75;1.67;;;;;;;5.87;86.75;101207.38;5003217;28;20308;-46
2022/01/17 07:15:21;;;;;;;7.20;1.40;;;;;;;5.85;86.75;101211.25;5000598;28;20058;-46
2022/01/17 07:17:46;;;;;;;7.00;1.20;;;;;;;5.80;88.05;101203.09;5000869;28;20698;-45
2022/01/17 07:20:12;;;;;;;4.43;1.15;;;;;;;5.78;88.11;101203.31;5000606;28;20022;-48
2022/01/17 07:22:37;;;;;;;7.57;1.27;;;;;;;5.72;89.13;101180.97;5014920;22;20049;-47
2022/01/17 07:25:03;;;;;;;6.35;1.75;;;;;;;5.75;89.20;101154.00;5000511;28;20494;-48
2022/01/17 07:27:29;;;;;;;5.70;2.10;;;;;;;5.72;89.24;101170.34;5001331;28;20563;-46
2022/01/17 07:29:54;;;;;;;6.55;1.30;;;;;;;5.69;90.14;101173.44;5002378;28;20124;-46
2022/01/17 07:32:20;;;;;;;6.20;1.35;;;;;;;5.67;90.66;101180.78;4999531;28;20022;-46
2022/01/17 07:34:46;;;;;;;4.85;1.30;;;;;;;5.72;90.89;101185.47;5004266;28;20129;-46
2022/01/17 07:37:11;;;;;;;10.35;1.70;;;;;;;5.66;91.32;101173.84;5005268;28;20140;-46
2022/01/17 07:39:37;;;;;;;4.85;1.35;;;;;;;5.64;92.21;101180.38;5002941;28;20030;-46
2022/01/17 07:42:03;;;;;;;8.48;1.63;;;;;;;5.65;91.48;101190.81;5007236;28;20069;-46
2022/01/17 07:44:30;;;;;;;5.88;1.20;;;;;;;5.67;91.66;101193.28;5002948;28;20076;-46
2022/01/17 07:46:58;;;;;;;7.80;1.55;;;;;;;5.67;91.49;101175.47;5005629;28;20476;-47
2022/01/17 07:49:25;;;;;;;8.30;1.40;;;;;;;5.63;92.52;101168.13;5004060;28;20248;-47
2022/01/17 07:52:05;;;;;;;6.40;1.20;;;;;;;5.60;93.30;101174.66;5004627;28;20025;-46
2022/01/17 07:54:35;;;;;;;4.53;1.25;;;;;;;5.66;92.87;101203.09;5003769;28;20025;-47
2022/01/17 07:57:01;;;;;;;5.25;1.40;;;;;;;5.69;93.30;101202.66;5001045;28;20037;-46
2022/01/17 07:59:28;;;;;;;8.48;1.55;;;;;;;5.71;93.10;101190.00;5003266;28;20101;-47
2022/01/17 08:01:54;;;;;;;2.28;0.95;;;;;;;5.70;93.51;101198.16;5002593;28;20058;-48
2022/01/17 08:04:20;;;;;;;7.07;1.25;;;;;;;5.71;93.71;101200.63;5003636;28;20025;-47
2022/01/17 08:06:46;;;;;;;2.53;0.82;;;;;;;5.69;93.90;101209.81;5002702;28;20030;-46
2022/01/17 08:09:31;;;;;;;2.10;0.65;;;;;;;5.73;93.39;101213.72;5005399;28;20507;-47
2022/01/17 08:11:57;;;;;;;5.50;0.83;;;;;;;5.76;93.42;101205.34;5006048;28;20030;-46
2022/01/17 08:14:24;;;;;;;3.90;0.70;;;;;;;5.70;94.25;101198.97;5002786;28;20029;-47
2022/01/17 08:16:50;;;;;;;10.02;0.93;;;;;;;5.69;95.54;101201.84;5001626;28;20029;-48
2022/01/17 08:19:16;;;;;;;4.78;1.33;;;;;;;5.74;95.20;101194.06;5003511;28;20029;-48
2022/01/17 08:21:41;;;;;;;2.83;0.75;;;;;;;5.81;93.91;101204.72;5001235;28;20030;-46
2022/01/17 08:24:07;;;;;;;2.30;1.00;;;;;;;5.84;93.66;101250.34;5004624;28;20127;-48
2022/01/17 08:26:33;;;;;;;11.88;1.83;;;;;;;5.86;93.46;101293.50;4992632;28;20041;-47
2022/01/17 08:28:58;;;;;;;4.05;1.13;;;;;;;5.74;92.90;101277.34;4997433;28;20125;-46
2022/01/17 08:31:24;;;;;;;2.38;1.00;;;;;;;5.48;91.98;101290.56;4997877;28;20026;-48
2022/01/17 08:33:49;;;;;;;8.05;2.15;;;;;;;5.35;91.46;101295.84;4998584;28;20056;-48
2022/01/17 08:36:19;;;;;;;5.65;1.10;;;;;;;5.41;91.26;101300.38;4998111;28;20032;-49
2022/01/17 08:38:45;;;;;;;4.40;1.10;;;;;;;5.33;90.80;101319.16;4998751;28;20044;-47
2022/01/17 08:41:11;;;;;;;3.40;0.80;;;;;;;5.25;90.26;101322.00;4998508;28;20030;-46
2022/01/17 08:43:36;;;;;;;3.40;0.90;;;;;;;5.23;89.91;101339.97;4995842;28;20484;-47
2022/01/17 08:46:03;;;;;;;3.33;0.80;;;;;;;5.19;89.61;101347.50;5001948;28;20037;-46
2022/01/17 08:48:28;;;;;;;4.93;0.90;;;;;;;5.16;89.15;101331.97;4996303;28;20535;-47
2022/01/17 08:50:54;;;;;;;7.57;1.00;;;;;;;5.21;88.73;101326.06;4999214;28;20156;-48
2022/01/17 08:53:19;;;;;;;2.63;0.82;;;;;;;5.19;88.27;101336.88;4998209;28;20302;-46
2022/01/17 08:55:46;;;;;;;3.88;1.35;;;;;;;5.15;87.87;101386.09;4998693;28;20034;-47
2022/01/17 08:58:13;;;;;;;1.70;0.85;;;;;;;5.16;87.81;101415.13;4998650;28;20491;-47
2022/01/17 09:00:39;;;;;;;7.85;1.42;;;;;;;5.15;87.62;101447.19;4997505;28;20049;-48
2022/01/17 09:03:05;;;;;;;3.22;0.98;;;;;;;5.01;86.54;101456.91;5001009;28;20113;-48
2022/01/17 09:05:32;;;;;;;7.60;1.25;;;;;;;4.88;86.58;101464.81;4991270;28;20229;-47
2022/01/17 09:07:59;;;;;;;6.03;1.05;;;;;;;4.81;86.72;101490.47;4998209;28;20030;-47
2022/01/17 09:10:25;;;;;;;3.40;1.20;;;;;;;4.64;85.51;101497.06;4998392;28;20030;-46
2022/01/17 09:12:52;;;;;;;3.30;1.10;;;;;;;4.51;85.56;101516.34;4998837;28;20040;-47
2022/01/17 09:15:17;;;;;;;4.45;1.10;;;;;;;4.34;84.65;101521.06;4998501;28;20101;-46
2022/01/17 09:17:43;;;;;;;5.00;1.30;;;;;;;4.23;83.57;101513.59;4999887;28;20120;-49
2022/01/17 09:20:09;;;;;;;7.43;1.05;;;;;;;4.09;82.85;101536.50;4996799;28;20387;-47
2022/01/17 09:22:35;;;;;;;5.32;1.05;;;;;;;4.06;82.33;101541.34;4997809;28;20081;-46
2022/01/17 09:25:01;;;;;;;11.95;1.10;;;;;;;4.03;82.79;101562.94;4996739;28;20447;-47
2022/01/17 09:27:26;;;;;;;6.63;1.48;;;;;;;3.95;82.41;101598.34;4997149;28;20061;-48
2022/01/17 09:29:53;;;;;;;10.13;3.45;;;;;;;3.97;81.86;101620.19;4997937;28;20022;-47
2022/01/17 09:32:19;;;;;;;23.08;6.28;;;;;;;3.88;81.27;101629.22;4996852;28;20021;-46
2022/01/17 09:34:46;;;;;;;17.02;5.55;;;;;;;3.82;80.07;101637.91;4995618;28;20395;-48
2022/01/17 09:37:12;;;;;;;11.30;3.00;;;;;;;3.72;79.22;101622.25;4993578;28;20559;-46
2022/01/17 09:39:38;;;;;;;6.25;1.98;;;;;;;3.75;79.75;101642.28;4999019;28;20033;-46
2022/01/17 09:42:08;;;;;;;4.60;1.50;;;;;;;3.76;79.72;101660.66;4999341;28;20104;-45
2022/01/17 09:44:35;;;;;;;4.55;1.38;;;;;;;3.55;77.90;101665.81;4995463;28;20039;-47
2022/01/17 09:47:05;;;;;;;4.10;1.15;;;;;;;3.51;78.07;101654.78;4997612;28;20037;-47
2022/01/17 09:49:36;;;;;;;2.45;0.65;;;;;;;3.54;78.76;101656.22;4995797;28;20330;-47
2022/01/17 09:52:15;;;;;;;3.83;1.10;;;;;;;3.57;78.48;101647.91;4995265;28;20033;-47
2022/01/17 09:54:44;;;;;;;3.50;0.75;;;;;;;3.42;77.46;101631.19;4993214;28;20030;-46
2022/01/17 09:57:11;;;;;;;10.77;1.48;;;;;;;3.53;78.38;101644.81;4995548;28;20030;-47
2022/01/17 09:59:39;;;;;;;4.70;1.33;;;;;;;3.46;77.40;101661.63;4997298;28;20522;-46
2022/01/17 10:02:06;;;;;;;8.35;1.10;;;;;;;3.53;77.62;101670.50;4996746;28;20125;-47
2022/01/17 10:04:34;;;;;;;3.33;0.90;;;;;;;3.50;77.17;101661.06;4992741;28;20018;-46
2022/01/17 10:07:01;;;;;;;6.45;1.00;;;;;;;3.43;76.86;101669.94;4996762;28;20179;-47
2022/01/17 10:09:28;;;;;;;5.10;1.00;;;;;;;3.51;77.31;101672.50;4992842;28;20022;-47
2022/01/17 10:12:03;;;;;;;6.20;2.25;;;;;;;3.54;77.14;101690.69;4998861;28;20495;-46
2022/01/17 10:14:36;;;;;;;5.78;0.75;;;;;;;3.45;75.18;101718.25;4999193;28;20025;-48
2022/01/17 10:17:07;;;;;;;2.03;0.80;;;;;;;3.59;75.94;101712.16;4996708;28;20048;-49
2022/01/17 10:19:33;;;;;;;9.25;1.23;;;;;;;3.51;75.84;101707.75;5012194;28;20026;-46
2022/01/17 10:22:00;;;;;;;5.15;1.27;;;;;;;3.57;75.67;101700.91;4997082;28;20081;-46
2022/01/17 10:24:39;;;;;;;3.75;1.00;;;;;;;3.58;74.77;101702.56;4998800;28;20027;-50
2022/01/17 10:27:31;;;;;;;4.55;0.95;;;;;;;3.57;74.68;101704.38;4997770;28;20487;-48
2022/01/17 10:30:32;;;;;;;4.68;0.80;;;;;;;3.58;74.06;101713.16;4998348;28;20072;-46
2022/01/17 10:35:52;;;;;;;6.68;1.40;;;;;;;3.64;74.14;101726.53;4996226;28;20314;-46
2022/01/17 10:38:23;;;;;;;4.10;1.65;;;;;;;3.63;72.30;101732.03;4998265;28;20026;-46
2022/01/17 10:41:02;;;;;;;7.00;1.13;;;;;;;3.76;73.58;101739.34;4997257;28;20036;-47
2022/01/17 10:43:35;;;;;;;8.88;1.10;;;;;;;3.76;72.50;101758.72;4999868;28;20504;-47
2022/01/17 10:46:04;;;;;;;2.38;1.15;;;;;;;3.73;70.98;101768.88;4997931;28;20498;-47
2022/01/17 10:48:39;;;;;;;4.65;1.25;;;;;;;3.81;72.00;101761.69;4998894;28;20049;-46
2022/01/17 10:51:06;;;;;;;5.20;1.40;;;;;;;3.87;72.04;101765.44;4999149;28;20115;-46
2022/01/17 10:53:32;;;;;;;5.28;1.20;;;;;;;3.93;72.55;101759.41;4997956;28;20390;-46
2022/01/17 10:55:59;;;;;;;4.25;1.15;;;;;;;3.92;71.56;101755.94;4997163;28;20038;-46
2022/01/17 10:58:29;;;;;;;6.22;1.27;;;;;;;3.84;70.52;101763.97;4999536;28;20045;-46
2022/01/17 11:01:00;;;;;;;7.32;1.13;;;;;;;3.92;70.77;101758.59;4997519;28;20026;-49
2022/01/17 11:03:32;;;;;;;5.70;1.23;;;;;;;4.00;71.38;101756.88;5002654;28;20022;-47
2022/01/17 11:06:03;;;;;;;5.80;1.00;;;;;;;3.97;69.26;101768.69;4999044;28;20064;-47
2022/01/17 11:08:30;;;;;;;7.43;1.10;;;;;;;4.03;70.35;101785.69;4997873;28;20025;-49
2022/01/17 11:10:58;;;;;;;8.82;1.88;;;;;;;4.01;70.05;101795.66;5004620;28;20211;-46
2022/01/17 11:13:27;;;;;;;3.28;1.48;;;;;;;3.97;68.98;101797.03;5000973;28;20030;-48
2022/01/17 11:15:59;;;;;;;5.38;1.50;;;;;;;3.98;69.10;101796.03;5004682;28;20037;-47
2022/01/17 11:18:28;;;;;;;5.20;1.30;;;;;;;4.02;69.20;101794.66;5002966;28;20030;-48
2022/01/17 11:20:57;;;;;;;8.07;1.60;;;;;;;3.98;69.27;101788.88;5003535;28;20038;-46
2022/01/17 11:23:24;;;;;;;7.88;1.38;;;;;;;3.99;69.62;101801.16;5003502;28;20022;-46
2022/01/17 11:25:53;;;;;;;14.55;1.67;;;;;;;3.92;69.63;101808.13;5004216;28;20056;-47
2022/01/17 11:28:23;;;;;;;9.93;1.52;;;;;;;3.97;69.86;101815.59;5002876;28;20033;-47
2022/01/17 11:30:51;;;;;;;5.60;1.30;;;;;;;4.20;69.86;101838.41;5003550;28;20056;-47
2022/01/17 11:33:16;;;;;;;7.22;1.75;;;;;;;4.42;69.44;101841.19;5001827;28;20040;-47
2022/01/17 11:35:45;;;;;;;10.85;1.80;;;;;;;4.63;68.34;101837.81;5002713;28;20030;-49
2022/01/17 11:38:19;;;;;;;7.47;1.67;;;;;;;4.82;67.18;101830.13;5001841;28;20020;-46
2022/01/17 11:40:45;;;;;;;6.65;1.35;;;;;;;4.97;66.42;101831.97;5016601;28;20033;-46
2022/01/17 11:43:22;;;;;;;10.57;1.80;;;;;;;5.17;67.13;101841.00;5002302;28;20376;-46
2022/01/17 11:45:49;;;;;;;9.98;1.17;;;;;;;5.30;65.74;101840.34;5000896;28;20076;-47
2022/01/17 11:48:19;;;;;;;7.05;1.15;;;;;;;5.44;65.96;101837.66;5001620;28;20129;-46
2022/01/17 11:50:47;;;;;;;9.38;2.30;;;;;;;5.56;66.13;101837.97;5005047;28;20552;-47
2022/01/17 11:53:13;;;;;;;11.80;2.28;;;;;;;5.57;64.29;101842.31;5001624;28;20394;-47
2022/01/17 11:55:38;;;;;;;10.20;2.22;;;;;;;5.76;65.45;101847.00;5000466;28;20056;-47
2022/01/17 11:58:26;;;;;;;12.23;1.88;;;;;;;5.79;64.39;101852.97;5002287;28;20030;-47